createdAt,value
2023-03-31T00:01:11.101Z,9.63
2023-03-31T00:03:44.578Z,8.65
2023-03-31T00:06:18.691Z,8.00
2023-03-31T00:08:47.232Z,8.43
2023-03-31T00:11:13.728Z,8.05
2023-03-31T00:16:09.983Z,7.80
2023-03-31T00:18:37.271Z,8.60
2023-03-31T00:21:24.433Z,8.93
2023-03-31T00:23:53.650Z,9.25
2023-03-31T00:26:20.453Z,9.10
2023-03-31T00:28:47.005Z,10.43
2023-03-31T00:31:13.549Z,9.32
2023-03-31T00:33:40.063Z,10.10
2023-03-31T00:36:07.289Z,9.13
2023-03-31T00:38:35.024Z,7.57
2023-03-31T00:41:02.754Z,8.18
2023-03-31T00:43:37.755Z,7.70
2023-03-31T00:46:17.850Z,8.70
2023-03-31T00:48:51.856Z,9.05
2023-03-31T00:51:21.432Z,8.75
2023-03-31T00:53:57.544Z,8.18
2023-03-31T00:56:24.608Z,9.13
2023-03-31T00:58:51.115Z,8.40
2023-03-31T01:01:24.717Z,8.25
2023-03-31T01:03:52.820Z,8.32
2023-03-31T01:06:19.980Z,8.27
2023-03-31T01:08:51.375Z,8.63
2023-03-31T01:11:24.344Z,7.97
2023-03-31T01:13:56.023Z,8.35
2023-03-31T01:16:23.061Z,8.18
2023-03-31T01:18:50.610Z,8.20
2023-03-31T01:21:57.035Z,8.18
2023-03-31T01:25:01.629Z,7.93
2023-03-31T01:27:54.134Z,8.18
2023-03-31T01:30:26.627Z,7.88
2023-03-31T01:33:16.428Z,8.13
2023-03-31T01:36:17.040Z,8.75
2023-03-31T01:39:02.285Z,8.73
2023-03-31T01:41:46.902Z,9.85
2023-03-31T01:44:22.011Z,8.18
2023-03-31T01:47:18.319Z,8.40
2023-03-31T01:50:02.259Z,8.25
2023-03-31T01:52:41.253Z,8.38
2023-03-31T01:55:39.176Z,7.88
2023-03-31T01:58:18.303Z,7.57
2023-03-31T02:00:56.881Z,7.97
2023-03-31T02:03:33.041Z,6.90
2023-03-31T02:06:08.702Z,7.55
2023-03-31T02:08:41.747Z,7.05
2023-03-31T02:11:08.565Z,7.60
2023-03-31T02:13:38.213Z,6.78
2023-03-31T02:16:14.360Z,7.65
2023-03-31T02:18:42.432Z,8.18
2023-03-31T02:21:11.792Z,7.68
2023-03-31T02:23:38.527Z,8.95
2023-03-31T02:26:11.994Z,8.07
2023-03-31T02:28:39.373Z,7.72
2023-03-31T02:31:27.908Z,8.70
2023-03-31T02:33:54.842Z,8.38
2023-03-31T02:36:21.704Z,7.55
2023-03-31T02:38:57.881Z,8.63
2023-03-31T02:41:27.679Z,8.63
2023-03-31T02:43:56.354Z,7.82
2023-03-31T02:46:24.382Z,7.65
2023-03-31T02:48:56.369Z,7.78
2023-03-31T02:51:28.831Z,8.05
2023-03-31T02:54:29.326Z,7.65
2023-03-31T02:57:33.902Z,7.38
2023-03-31T03:00:11.169Z,6.97
2023-03-31T03:03:01.536Z,7.72
2023-03-31T03:05:38.226Z,7.05
2023-03-31T03:08:59.011Z,7.93
2023-03-31T03:11:43.977Z,7.90
2023-03-31T03:14:32.568Z,7.55
2023-03-31T03:17:05.921Z,8.32
2023-03-31T03:19:32.506Z,8.30
2023-03-31T03:21:59.014Z,8.40
2023-03-31T03:26:56.579Z,8.13
2023-03-31T03:29:23.115Z,8.80
2023-03-31T03:31:49.642Z,7.72
2023-03-31T03:36:43.003Z,7.95
2023-03-31T03:41:36.257Z,7.85
2023-03-31T03:44:02.878Z,8.13
2023-03-31T03:46:29.665Z,7.97
2023-03-31T03:48:56.576Z,9.20
2023-03-31T03:51:23.233Z,8.52
2023-03-31T03:53:49.798Z,7.43
2023-03-31T03:56:16.453Z,7.70
2023-03-31T03:58:42.988Z,8.82
2023-03-31T04:03:36.003Z,8.18
2023-03-31T04:06:02.541Z,8.02
2023-03-31T04:08:29.054Z,8.20
2023-03-31T04:13:22.066Z,7.40
2023-03-31T04:15:48.753Z,8.52
2023-03-31T04:18:22.884Z,8.43
2023-03-31T04:21:05.456Z,8.80
2023-03-31T04:23:46.281Z,8.38
2023-03-31T04:26:14.095Z,7.85
2023-03-31T04:28:42.892Z,8.50
2023-03-31T04:31:10.643Z,7.50
2023-03-31T04:33:40.115Z,7.60
2023-03-31T04:36:17.633Z,7.45
2023-03-31T04:38:50.880Z,7.80
2023-03-31T04:41:17.944Z,7.82
2023-03-31T04:43:44.564Z,8.05
2023-03-31T04:46:11.111Z,8.25
2023-03-31T04:48:37.647Z,9.02
2023-03-31T04:53:31.072Z,7.93
2023-03-31T04:55:58.020Z,8.25
2023-03-31T04:58:24.535Z,8.90
2023-03-31T05:03:18.729Z,8.07
2023-03-31T05:05:45.339Z,8.68
2023-03-31T05:08:11.804Z,8.85
2023-03-31T05:13:04.654Z,9.20
2023-03-31T05:17:59.008Z,9.27
2023-03-31T05:20:25.718Z,10.43
2023-03-31T05:22:52.240Z,12.00
2023-03-31T05:27:48.453Z,15.02
2023-03-31T05:30:16.401Z,14.98
2023-03-31T05:32:43.609Z,14.65
2023-03-31T05:35:10.889Z,13.57
2023-03-31T05:37:37.359Z,11.48
2023-03-31T05:44:57.903Z,9.85
2023-03-31T05:49:50.951Z,9.75
2023-03-31T05:52:17.723Z,9.35
2023-03-31T05:54:44.369Z,9.52
2023-03-31T05:57:11.856Z,10.55
2023-03-31T05:59:38.672Z,10.40
2023-03-31T06:02:05.582Z,10.85
2023-03-31T06:04:32.948Z,10.60
2023-03-31T06:06:59.933Z,12.40
2023-03-31T06:09:26.654Z,10.90
2023-03-31T06:11:53.115Z,10.88
2023-03-31T06:16:47.778Z,10.07
2023-03-31T06:19:14.310Z,11.02
2023-03-31T06:24:09.476Z,10.30
2023-03-31T06:26:36.306Z,11.38
2023-03-31T06:29:02.846Z,10.45
2023-03-31T06:33:56.297Z,10.97
2023-03-31T06:36:23.118Z,12.07
2023-03-31T06:38:50.397Z,11.30
2023-03-31T06:41:18.488Z,10.68
2023-03-31T06:43:45.194Z,12.00
2023-03-31T06:46:12.580Z,11.98
2023-03-31T06:48:39.281Z,10.63
2023-03-31T06:51:07.400Z,10.18
2023-03-31T06:53:34.476Z,11.68
2023-03-31T06:56:01.167Z,10.52
2023-03-31T06:58:31.163Z,11.55
2023-03-31T07:00:58.531Z,12.25
2023-03-31T07:03:25.510Z,10.43
2023-03-31T07:05:53.969Z,12.75
2023-03-31T07:08:21.617Z,11.88
2023-03-31T07:10:57.605Z,11.60
2023-03-31T07:13:25.298Z,12.05
2023-03-31T07:15:52.159Z,11.52
2023-03-31T07:18:19.399Z,11.43
2023-03-31T07:20:49.679Z,11.63
2023-03-31T07:23:16.453Z,11.07
2023-03-31T07:25:43.106Z,11.82
2023-03-31T07:28:09.607Z,11.88
2023-03-31T07:33:03.011Z,12.77
2023-03-31T07:35:31.369Z,12.55
2023-03-31T07:37:58.393Z,11.35
2023-03-31T07:40:28.110Z,13.05
2023-03-31T07:42:55.024Z,11.95
2023-03-31T07:45:24.719Z,12.15
2023-03-31T07:47:51.409Z,11.98
2023-03-31T07:50:18.424Z,12.55
2023-03-31T07:52:47.009Z,12.57
2023-03-31T07:55:14.380Z,14.23
2023-03-31T07:57:41.478Z,14.55
2023-03-31T08:00:12.079Z,15.30
2023-03-31T08:02:39.987Z,15.05
2023-03-31T08:05:07.647Z,14.57
2023-03-31T08:07:36.232Z,15.90
2023-03-31T08:10:06.184Z,14.13
2023-03-31T08:12:32.910Z,14.60
2023-03-31T08:14:59.495Z,16.58
2023-03-31T08:17:26.074Z,13.85
2023-03-31T08:19:52.525Z,13.07
2023-03-31T08:24:46.703Z,11.00
2023-03-31T08:27:13.222Z,12.43
2023-03-31T08:32:07.112Z,14.20
2023-03-31T08:34:33.905Z,13.52
2023-03-31T08:39:27.645Z,13.43
2023-03-31T08:42:12.182Z,11.75
2023-03-31T08:44:46.838Z,11.57
2023-03-31T08:47:20.189Z,11.60
2023-03-31T08:49:54.260Z,10.38
2023-03-31T08:52:29.354Z,10.35
2023-03-31T08:54:59.576Z,11.40
2023-03-31T08:57:32.272Z,10.27
2023-03-31T09:00:06.817Z,8.50
2023-03-31T09:02:49.445Z,7.18
2023-03-31T09:05:52.996Z,7.63
2023-03-31T09:08:41.030Z,7.95
2023-03-31T09:11:13.334Z,8.40
2023-03-31T09:13:53.984Z,7.90
2023-03-31T09:16:30.694Z,6.93
2023-03-31T09:19:00.951Z,8.40
2023-03-31T09:21:51.654Z,8.52
2023-03-31T09:24:23.700Z,7.88
2023-03-31T09:26:57.919Z,5.63
2023-03-31T09:29:32.878Z,5.78
2023-03-31T09:32:14.050Z,6.40
2023-03-31T09:34:41.076Z,5.60
2023-03-31T09:37:10.684Z,5.60
2023-03-31T09:39:38.566Z,4.70
2023-03-31T09:42:05.705Z,5.38
2023-03-31T09:44:39.433Z,5.25
2023-03-31T09:47:32.414Z,4.00
2023-03-31T09:49:58.928Z,4.60
2023-03-31T09:55:35.998Z,4.03
2023-03-31T09:58:08.140Z,4.18
2023-03-31T10:00:35.270Z,3.95
2023-03-31T10:03:07.529Z,4.32
2023-03-31T10:05:41.184Z,2.97
2023-03-31T10:08:16.582Z,5.10
2023-03-31T10:11:08.231Z,3.03
2023-03-31T10:14:02.819Z,3.22
2023-03-31T10:16:29.361Z,3.50
2023-03-31T10:19:10.791Z,4.05
2023-03-31T10:21:38.703Z,3.72
2023-03-31T10:24:09.647Z,3.70
2023-03-31T10:26:36.884Z,3.58
2023-03-31T10:29:11.978Z,3.13
2023-03-31T10:31:39.420Z,3.13
2023-03-31T10:34:16.967Z,2.67
2023-03-31T10:36:49.716Z,2.67
2023-03-31T10:39:18.090Z,2.80
2023-03-31T10:41:51.297Z,2.45
2023-03-31T10:44:36.954Z,2.30
2023-03-31T10:47:24.993Z,2.40
2023-03-31T10:49:57.403Z,2.50
2023-03-31T10:52:27.187Z,2.13
2023-03-31T10:54:58.453Z,2.17
2023-03-31T10:57:53.485Z,1.60
2023-03-31T11:01:18.328Z,1.65
2023-03-31T11:04:09.387Z,1.90
2023-03-31T11:07:04.329Z,1.73
2023-03-31T11:09:55.314Z,1.95
2023-03-31T11:12:30.336Z,1.80
2023-03-31T11:15:19.445Z,1.63
2023-03-31T11:18:04.002Z,1.67
2023-03-31T11:20:33.351Z,1.65
2023-03-31T11:23:11.538Z,1.52
2023-03-31T11:26:11.409Z,1.30
2023-03-31T11:28:49.711Z,1.67
2023-03-31T11:31:48.859Z,2.35
2023-03-31T11:34:36.941Z,1.33
2023-03-31T11:37:17.163Z,1.70
2023-03-31T11:40:00.517Z,1.85
2023-03-31T11:42:38.022Z,1.58
2023-03-31T11:45:34.303Z,1.80
2023-03-31T11:48:07.986Z,2.10
2023-03-31T11:50:40.127Z,1.83
2023-03-31T11:53:15.531Z,1.38
2023-03-31T11:55:43.225Z,1.83
2023-03-31T11:58:18.674Z,2.10
2023-03-31T12:00:51.809Z,1.90
2023-03-31T12:03:41.860Z,1.73
2023-03-31T12:06:19.384Z,2.63
2023-03-31T12:08:48.779Z,1.75
2023-03-31T12:11:27.804Z,2.20
2023-03-31T12:14:09.441Z,1.88
2023-03-31T12:16:41.294Z,1.98
2023-03-31T12:19:45.318Z,1.70
2023-03-31T12:22:23.979Z,1.83
2023-03-31T12:24:51.864Z,2.20
2023-03-31T12:27:36.858Z,1.90
2023-03-31T12:30:10.662Z,1.98
2023-03-31T12:32:41.782Z,1.77
2023-03-31T12:35:22.670Z,2.13
2023-03-31T12:37:58.224Z,1.95
2023-03-31T12:40:56.391Z,2.28
2023-03-31T12:46:48.366Z,1.88
2023-03-31T12:49:47.492Z,2.60
2023-03-31T12:52:26.534Z,1.73
2023-03-31T12:55:11.608Z,2.50
2023-03-31T12:57:38.143Z,2.25
2023-03-31T13:02:43.756Z,1.50
2023-03-31T13:05:44.252Z,1.88
2023-03-31T13:08:10.707Z,1.70
2023-03-31T13:13:22.783Z,2.00
2023-03-31T13:16:01.209Z,2.15
2023-03-31T13:18:31.701Z,2.05
2023-03-31T13:23:37.072Z,1.65
2023-03-31T13:26:04.294Z,1.60
2023-03-31T13:28:42.599Z,1.48
2023-03-31T13:31:11.767Z,1.63
2023-03-31T13:33:58.804Z,1.73
2023-03-31T13:36:34.420Z,1.83
2023-03-31T13:39:21.363Z,1.63
2023-03-31T13:42:35.858Z,1.60
2023-03-31T13:45:08.414Z,1.20
2023-03-31T13:47:57.210Z,1.65
2023-03-31T13:50:39.269Z,1.42
2023-03-31T13:53:24.131Z,1.45
2023-03-31T13:56:09.638Z,1.45
2023-03-31T13:58:50.900Z,1.30
2023-03-31T14:01:47.624Z,1.35
2023-03-31T14:04:58.571Z,1.23
2023-03-31T14:07:43.524Z,1.42
2023-03-31T14:10:36.317Z,1.40
2023-03-31T14:13:18.815Z,1.30
2023-03-31T14:15:57.653Z,1.30
2023-03-31T14:18:34.453Z,1.40
2023-03-31T14:21:24.053Z,1.60
2023-03-31T14:24:11.208Z,1.50
2023-03-31T14:26:52.523Z,1.55
2023-03-31T14:29:31.460Z,1.35
2023-03-31T14:32:06.494Z,1.20
2023-03-31T14:34:57.830Z,1.55
2023-03-31T14:37:24.520Z,1.70
2023-03-31T14:39:54.962Z,1.70
2023-03-31T14:42:26.247Z,1.75
2023-03-31T14:44:57.923Z,1.52
2023-03-31T14:47:29.162Z,1.60
2023-03-31T14:50:00.337Z,2.00
2023-03-31T14:52:32.211Z,2.13
2023-03-31T14:54:59.728Z,2.05
2023-03-31T14:57:32.620Z,1.85
2023-03-31T15:00:02.371Z,2.55
2023-03-31T15:02:37.867Z,2.85
2023-03-31T15:05:30.995Z,2.30
2023-03-31T15:08:05.568Z,2.42
2023-03-31T15:10:45.635Z,2.47
2023-03-31T15:13:19.326Z,2.40
2023-03-31T15:15:46.309Z,2.50
2023-03-31T15:18:14.752Z,2.75
2023-03-31T15:20:42.893Z,2.10
2023-03-31T15:23:27.589Z,2.00
2023-03-31T15:25:59.004Z,2.75
2023-03-31T15:28:31.436Z,2.38
2023-03-31T15:31:09.638Z,2.53
2023-03-31T15:33:41.495Z,2.53
2023-03-31T15:36:11.940Z,2.45
2023-03-31T15:38:38.860Z,2.70
2023-03-31T15:41:12.385Z,2.65
2023-03-31T15:43:42.056Z,2.65
2023-03-31T15:46:11.880Z,2.00
2023-03-31T15:48:53.108Z,1.27
2023-03-31T15:51:33.287Z,1.55
2023-03-31T15:53:59.842Z,1.63
2023-03-31T15:59:34.212Z,1.75
2023-03-31T16:02:05.863Z,1.77
2023-03-31T16:04:33.190Z,1.45
2023-03-31T16:07:17.684Z,1.35
2023-03-31T16:09:51.910Z,1.45
2023-03-31T16:12:25.416Z,1.73
2023-03-31T16:15:02.631Z,1.98
2023-03-31T16:18:05.382Z,1.90
2023-03-31T16:20:38.774Z,1.58
2023-03-31T16:23:18.879Z,1.60
2023-03-31T16:25:46.550Z,1.88
2023-03-31T16:28:20.619Z,1.67
2023-03-31T16:30:47.220Z,1.90
2023-03-31T16:35:42.842Z,1.98
2023-03-31T16:38:12.160Z,2.30
2023-03-31T16:40:41.168Z,1.73
2023-03-31T16:43:13.812Z,1.80
2023-03-31T16:45:43.775Z,2.00
2023-03-31T16:48:16.517Z,2.88
2023-03-31T16:50:49.103Z,2.40
2023-03-31T16:53:18.746Z,1.98
2023-03-31T16:55:45.622Z,1.75
2023-03-31T16:58:12.538Z,1.88
2023-03-31T17:00:40.605Z,1.70
2023-03-31T17:03:09.886Z,1.35
2023-03-31T17:05:42.086Z,2.13
2023-03-31T17:08:10.176Z,1.85
2023-03-31T17:10:38.649Z,2.75
2023-03-31T17:13:06.043Z,69.43
2023-03-31T17:15:34.122Z,11.93
2023-03-31T17:18:00.811Z,2.20
2023-03-31T17:20:28.048Z,1.77
2023-03-31T17:25:21.464Z,8.18
2023-03-31T17:27:48.635Z,1.98
2023-03-31T17:30:15.635Z,2.60
2023-03-31T17:32:42.589Z,1.95
2023-03-31T17:35:10.282Z,1.80
2023-03-31T17:37:37.367Z,2.03
2023-03-31T17:40:05.092Z,1.92
2023-03-31T17:42:31.657Z,1.50
2023-03-31T17:47:25.013Z,1.85
2023-03-31T17:52:18.388Z,2.23
2023-03-31T17:57:11.363Z,2.45
2023-03-31T17:59:38.950Z,2.40
2023-03-31T18:02:05.733Z,2.13
2023-03-31T18:04:32.421Z,1.75
2023-03-31T18:06:58.948Z,1.67
2023-03-31T18:09:25.498Z,1.55
2023-03-31T18:14:18.530Z,2.15
2023-03-31T18:19:11.315Z,2.05
2023-03-31T18:21:37.825Z,2.58
2023-03-31T18:26:30.803Z,1.90
2023-03-31T18:31:25.094Z,2.10
2023-03-31T18:33:52.347Z,2.22
2023-03-31T18:36:19.707Z,1.85
2023-03-31T18:38:47.906Z,2.10
2023-03-31T18:41:16.057Z,2.03
2023-03-31T18:43:42.537Z,2.00
2023-03-31T18:48:38.381Z,2.03
2023-03-31T18:51:04.998Z,2.10
2023-03-31T18:53:31.641Z,2.00
2023-03-31T18:55:59.247Z,2.15
2023-03-31T18:58:27.905Z,1.95
2023-03-31T19:00:54.821Z,2.97
2023-03-31T19:03:22.198Z,2.42
2023-03-31T19:05:49.624Z,3.03
2023-03-31T19:08:16.203Z,5.18
2023-03-31T19:13:14.340Z,2.53
2023-03-31T19:15:40.861Z,2.20
2023-03-31T19:20:34.265Z,1.52
2023-03-31T19:25:27.765Z,2.88
2023-03-31T19:27:54.520Z,1.95
2023-03-31T19:30:24.065Z,3.47
2023-03-31T19:32:51.014Z,2.42
2023-03-31T19:35:19.523Z,2.42
2023-03-31T19:37:47.410Z,2.30
2023-03-31T19:40:14.562Z,2.85
2023-03-31T19:42:42.127Z,2.58
2023-03-31T19:45:09.188Z,2.38
2023-03-31T19:47:35.759Z,4.40
2023-03-31T19:50:02.967Z,3.10
2023-03-31T19:52:30.041Z,2.25
2023-03-31T19:54:56.918Z,2.45
2023-03-31T19:57:23.511Z,2.55
2023-03-31T19:59:50.019Z,2.58
2023-03-31T20:04:43.823Z,4.45
2023-03-31T20:07:10.342Z,3.25
2023-03-31T20:12:03.967Z,2.57
2023-03-31T20:14:30.544Z,3.38
2023-03-31T20:17:00.825Z,3.45
2023-03-31T20:19:28.373Z,2.90
2023-03-31T20:21:55.867Z,2.78
2023-03-31T20:24:23.224Z,2.33
2023-03-31T20:26:50.003Z,2.50
2023-03-31T20:29:16.582Z,2.13
2023-03-31T20:31:43.168Z,2.47
2023-03-31T20:34:15.009Z,2.33
2023-03-31T20:36:43.860Z,2.28
2023-03-31T20:39:11.473Z,2.65
2023-03-31T20:41:38.499Z,2.60
2023-03-31T20:44:07.418Z,2.40
2023-03-31T20:46:34.485Z,2.80
2023-03-31T20:49:02.510Z,2.10
2023-03-31T20:51:34.016Z,2.63
2023-03-31T20:54:01.849Z,2.30
2023-03-31T20:56:31.675Z,2.30
2023-03-31T20:58:59.467Z,2.45
2023-03-31T21:01:28.331Z,2.40
2023-03-31T21:03:55.064Z,2.53
2023-03-31T21:06:21.722Z,2.10
2023-03-31T21:08:52.089Z,2.13
2023-03-31T21:11:18.982Z,2.28
2023-03-31T21:13:45.519Z,2.22
2023-03-31T21:18:38.745Z,2.80
2023-03-31T21:21:08.588Z,2.75
2023-03-31T21:23:35.656Z,2.72
2023-03-31T21:26:04.395Z,2.78
2023-03-31T21:28:33.434Z,2.20
2023-03-31T21:31:08.998Z,3.25
2023-03-31T21:33:40.441Z,3.30
2023-03-31T21:36:09.553Z,4.72
2023-03-31T21:38:37.012Z,4.82
2023-03-31T21:41:08.148Z,3.60
2023-03-31T21:43:34.978Z,3.03
2023-03-31T21:46:01.982Z,2.53
2023-03-31T21:48:29.604Z,2.53
2023-03-31T21:51:00.340Z,2.65
2023-03-31T21:53:29.262Z,2.08
2023-03-31T21:55:56.474Z,2.75
2023-03-31T21:58:25.319Z,2.58
2023-03-31T22:17:28.782Z,2.95
2023-03-31T22:19:55.736Z,6.65
2023-03-31T22:22:22.484Z,3.53
2023-03-31T22:24:49.148Z,3.65
2023-03-31T22:27:15.812Z,2.70
2023-03-31T22:29:42.368Z,2.38
2023-03-31T22:32:08.901Z,3.55
2023-03-31T22:37:01.964Z,2.15
2023-03-31T22:39:28.512Z,3.53
2023-03-31T22:44:21.807Z,3.73
2023-03-31T22:46:49.884Z,3.30
2023-03-31T22:49:16.759Z,2.80
2023-03-31T22:51:45.051Z,2.97
2023-03-31T22:54:16.525Z,2.67
2023-03-31T22:56:44.054Z,2.40
2023-03-31T22:59:10.646Z,2.80
2023-03-31T23:01:37.436Z,2.45
2023-03-31T23:04:04.398Z,2.55
2023-03-31T23:06:32.310Z,2.63
2023-03-31T23:08:59.948Z,2.28
2023-03-31T23:11:27.322Z,2.90
2023-03-31T23:13:53.853Z,2.38
2023-03-31T23:18:53.794Z,2.30
2023-03-31T23:21:23.707Z,2.47
2023-03-31T23:23:53.709Z,2.55
2023-03-31T23:26:22.483Z,2.30
2023-03-31T23:28:49.857Z,2.63
2023-03-31T23:31:31.713Z,2.75
2023-03-31T23:34:00.325Z,2.38
2023-03-31T23:36:27.681Z,2.35
2023-03-31T23:38:56.340Z,1.95
2023-03-31T23:41:24.020Z,2.22
2023-03-31T23:43:54.574Z,1.95
2023-03-31T23:46:21.667Z,2.22
2023-03-31T23:48:48.648Z,2.22
2023-03-31T23:51:15.383Z,1.98
2023-03-31T23:53:41.986Z,2.10
2023-03-31T23:56:12.048Z,2.65
2023-03-31T23:58:40.190Z,1.95
